Time;durP1;ratioP1;P1;durP2;ratioP2;P2;SDS_P1;SDS_P2;PMS_P1;PMS_P2;Temp;Humidity;BMP_temperature;BMP_pressure;BME280_temperature;BME280_humidity;BME280_pressure;Samples;Min_cycle;Max_cycle;Signal;HPM_P1;HPM_P2
2023/11/15 00:02:15;;;;;;;4.30;3.67;;;9.50;99.90;;;;;;5034937;28;20234;-66
2023/11/15 00:04:43;;;;;;;7.47;3.63;;;9.50;99.90;;;;;;5034508;28;20557;-65
2023/11/15 00:07:10;;;;;;;5.20;4.03;;;9.50;99.90;;;;;;5034510;28;20204;-66
2023/11/15 00:09:36;;;;;;;6.68;4.10;;;9.50;99.90;;;;;;5035456;28;20208;-65
2023/11/15 00:12:03;;;;;;;6.00;3.57;;;9.50;99.90;;;;;;5036336;28;20214;-65
2023/11/15 00:14:30;;;;;;;3.60;3.30;;;9.50;99.90;;;;;;5036140;28;20217;-65
2023/11/15 00:16:57;;;;;;;6.03;3.58;;;9.50;99.90;;;;;;5034322;28;20222;-65
2023/11/15 00:19:25;;;;;;;8.60;3.30;;;9.50;99.90;;;;;;5033819;28;20293;-65
2023/11/15 00:21:53;;;;;;;6.80;3.60;;;9.50;99.90;;;;;;5033784;28;20318;-65
2023/11/15 00:24:20;;;;;;;4.50;3.53;;;9.50;99.90;;;;;;5033744;28;20229;-66
2023/11/15 00:26:46;;;;;;;5.75;3.40;;;9.50;99.90;;;;;;5034237;28;20202;-64
2023/11/15 00:29:14;;;;;;;6.25;3.40;;;9.50;99.90;;;;;;5037759;28;20198;-66
2023/11/15 00:31:41;;;;;;;6.70;3.20;;;9.50;99.90;;;;;;5037627;28;20229;-65
2023/11/15 00:34:08;;;;;;;5.35;3.50;;;9.50;99.90;;;;;;5038208;28;20205;-65
2023/11/15 00:36:38;;;;;;;5.07;3.75;;;9.50;99.90;;;;;;5037518;28;20257;-66
2023/11/15 00:39:08;;;;;;;6.35;4.05;;;9.50;99.90;;;;;;5037397;28;20289;-64
2023/11/15 00:41:35;;;;;;;4.97;3.67;;;9.50;99.90;;;;;;5038933;28;20226;-65
2023/11/15 00:44:03;;;;;;;10.32;4.00;;;9.50;99.90;;;;;;5038816;28;20202;-66
2023/11/15 00:46:32;;;;;;;6.77;4.10;;;9.50;99.90;;;;;;5037869;28;20698;-66
2023/11/15 00:48:59;;;;;;;5.88;3.20;;;9.50;99.90;;;;;;5038094;28;20468;-64
2023/11/15 00:51:25;;;;;;;5.45;2.97;;;9.50;99.90;;;;;;5037784;28;20226;-65
2023/11/15 00:53:52;;;;;;;7.95;4.40;;;9.50;99.90;;;;;;5037097;28;20229;-66
2023/11/15 00:56:20;;;;;;;5.50;2.75;;;9.50;99.90;;;;;;5037656;28;20217;-66
2023/11/15 00:58:47;;;;;;;5.63;3.13;;;9.50;99.90;;;;;;5037192;28;20237;-66
2023/11/15 01:01:14;;;;;;;10.70;3.47;;;9.50;99.90;;;;;;5049654;28;20465;-65
2023/11/15 01:03:45;;;;;;;4.03;2.70;;;9.60;99.90;;;;;;5044980;28;20210;-66
2023/11/15 01:06:14;;;;;;;6.57;2.88;;;9.60;99.90;;;;;;5036938;28;20186;-65
2023/11/15 01:08:41;;;;;;;6.60;2.97;;;9.60;99.90;;;;;;5036768;28;20216;-65
2023/11/15 01:11:08;;;;;;;5.78;2.92;;;9.50;99.90;;;;;;5036397;28;20737;-65
2023/11/15 01:13:36;;;;;;;6.25;2.47;;;9.60;99.90;;;;;;5036851;28;20210;-66
2023/11/15 01:16:04;;;;;;;5.28;2.63;;;9.60;99.90;;;;;;5036517;28;20225;-64
2023/11/15 01:18:33;;;;;;;5.05;2.75;;;9.60;99.90;;;;;;5036414;28;20222;-65
2023/11/15 01:21:00;;;;;;;7.20;3.05;;;9.50;99.90;;;;;;5037412;28;20222;-65
2023/11/15 01:23:28;;;;;;;9.77;3.75;;;9.60;99.90;;;;;;5036874;28;20206;-66
2023/11/15 01:25:55;;;;;;;8.93;3.22;;;9.60;99.90;;;;;;5037712;28;20205;-66
2023/11/15 01:28:22;;;;;;;8.45;3.00;;;9.60;99.90;;;;;;5037873;28;20200;-66
2023/11/15 01:30:50;;;;;;;5.15;2.83;;;9.60;99.90;;;;;;5036348;28;20667;-66
2023/11/15 01:33:17;;;;;;;3.50;2.58;;;9.60;99.90;;;;;;5037253;28;20213;-66
2023/11/15 01:35:44;;;;;;;6.65;2.80;;;9.50;99.90;;;;;;5036047;28;20672;-66
2023/11/15 01:38:12;;;;;;;6.50;3.30;;;9.40;99.90;;;;;;5036875;28;20228;-66
2023/11/15 01:40:40;;;;;;;8.00;3.22;;;9.30;99.90;;;;;;5036169;28;20210;-65
2023/11/15 01:43:09;;;;;;;8.57;3.05;;;9.30;99.90;;;;;;5036512;28;20305;-64
2023/11/15 01:45:36;;;;;;;9.60;3.40;;;9.20;99.90;;;;;;5036457;28;20202;-66
2023/11/15 01:48:05;;;;;;;7.18;3.05;;;9.20;99.90;;;;;;5036403;28;20549;-65
2023/11/15 01:50:33;;;;;;;6.70;2.80;;;9.20;99.90;;;;;;5036370;28;20297;-66
2023/11/15 01:53:00;;;;;;;8.20;3.67;;;9.20;99.90;;;;;;5036134;28;20252;-67
2023/11/15 01:55:28;;;;;;;9.00;3.60;;;9.10;99.90;;;;;;5036109;28;20235;-66
2023/11/15 01:57:55;;;;;;;6.15;2.85;;;9.10;99.90;;;;;;5036022;28;20222;-66
2023/11/15 02:00:23;;;;;;;5.97;2.70;;;9.10;99.90;;;;;;5037295;28;20210;-67
2023/11/15 02:02:50;;;;;;;5.22;3.40;;;9.00;99.90;;;;;;5036971;28;20229;-66
2023/11/15 02:05:18;;;;;;;10.25;3.38;;;9.00;99.90;;;;;;5037669;28;20307;-65
2023/11/15 02:07:46;;;;;;;4.30;2.80;;;9.00;99.90;;;;;;5036182;28;20204;-66
2023/11/15 02:10:13;;;;;;;9.93;3.22;;;9.10;99.90;;;;;;5035875;28;20202;-65
2023/11/15 02:12:40;;;;;;;9.45;3.60;;;9.00;99.90;;;;;;5036516;28;20226;-66
2023/11/15 02:15:08;;;;;;;8.05;2.55;;;9.00;99.90;;;;;;5037398;28;20296;-65
2023/11/15 02:17:35;;;;;;;7.63;2.65;;;9.00;99.90;;;;;;5036454;28;20237;-65
2023/11/15 02:20:05;;;;;;;6.13;2.30;;;9.00;99.90;;;;;;5036213;28;20202;-65
2023/11/15 02:22:34;;;;;;;3.67;2.13;;;9.00;99.90;;;;;;5035287;28;20773;-65
2023/11/15 02:25:02;;;;;;;10.27;3.10;;;9.00;99.90;;;;;;5035601;28;20209;-65
2023/11/15 02:27:29;;;;;;;5.72;3.65;;;9.00;99.90;;;;;;5035869;28;20198;-64
2023/11/15 02:29:56;;;;;;;4.53;3.13;;;9.00;99.90;;;;;;5036218;28;20206;-64
2023/11/15 02:32:22;;;;;;;7.85;3.05;;;9.00;99.90;;;;;;5035716;28;20222;-65
2023/11/15 02:34:48;;;;;;;7.22;3.05;;;9.00;99.90;;;;;;5035718;28;20203;-65
2023/11/15 02:37:15;;;;;;;6.53;3.60;;;9.00;99.90;;;;;;5035435;28;20269;-65
2023/11/15 02:39:43;;;;;;;3.70;3.20;;;9.00;99.90;;;;;;5035124;28;20676;-65
2023/11/15 02:42:11;;;;;;;5.43;3.20;;;9.00;99.90;;;;;;5036456;28;20245;-66
2023/11/15 02:44:37;;;;;;;6.78;3.60;;;9.00;99.90;;;;;;5035945;28;20206;-66
2023/11/15 02:47:05;;;;;;;6.28;3.30;;;9.00;99.90;;;;;;5035381;28;20667;-66
2023/11/15 02:49:32;;;;;;;15.65;3.70;;;9.00;99.90;;;;;;5035741;28;20558;-65
2023/11/15 02:51:58;;;;;;;5.82;3.17;;;9.00;99.90;;;;;;5033784;28;20253;-66
2023/11/15 02:54:25;;;;;;;4.43;3.28;;;9.00;99.90;;;;;;5035523;28;20205;-65
2023/11/15 02:56:52;;;;;;;8.77;3.40;;;9.00;99.90;;;;;;5034526;28;20205;-65
2023/11/15 02:59:22;;;;;;;6.15;3.80;;;9.00;99.90;;;;;;5034190;28;20222;-65
2023/11/15 03:01:51;;;;;;;7.32;3.60;;;9.00;99.90;;;;;;5062101;22;20226;-65
2023/11/15 03:04:18;;;;;;;10.77;3.90;;;9.00;99.90;;;;;;5034455;28;20225;-64
2023/11/15 03:06:44;;;;;;;9.77;3.75;;;9.00;99.90;;;;;;5034669;28;20202;-64
2023/11/15 03:09:13;;;;;;;6.03;3.90;;;9.00;99.90;;;;;;5033751;28;20198;-64
2023/11/15 03:11:40;;;;;;;11.05;4.00;;;9.00;99.90;;;;;;5034217;28;20276;-64
2023/11/15 03:14:07;;;;;;;4.55;3.20;;;8.90;99.90;;;;;;5033830;28;20298;-64
2023/11/15 03:16:35;;;;;;;5.68;3.10;;;8.90;99.90;;;;;;5034225;28;20289;-64
2023/11/15 03:19:02;;;;;;;7.88;3.50;;;8.90;99.90;;;;;;5034085;28;20232;-64
2023/11/15 03:21:29;;;;;;;5.45;3.92;;;8.80;99.90;;;;;;5033792;28;20222;-64
2023/11/15 03:23:56;;;;;;;5.95;3.35;;;8.80;99.90;;;;;;5033568;28;20676;-64
2023/11/15 03:26:23;;;;;;;9.13;3.30;;;8.70;99.90;;;;;;5033360;28;20206;-64
2023/11/15 03:28:50;;;;;;;4.25;3.33;;;8.70;99.90;;;;;;5033760;28;20198;-64
2023/11/15 03:31:17;;;;;;;4.97;3.15;;;8.70;99.90;;;;;;5033181;28;20712;-64
2023/11/15 03:33:47;;;;;;;3.95;2.75;;;8.60;99.90;;;;;;5033907;28;20205;-64
2023/11/15 03:36:15;;;;;;;4.97;2.90;;;8.60;99.90;;;;;;5034000;28;20230;-64
2023/11/15 03:38:42;;;;;;;5.95;2.75;;;8.60;99.90;;;;;;5033195;28;20269;-64
2023/11/15 03:41:09;;;;;;;5.30;2.70;;;8.60;99.90;;;;;;5033562;28;20242;-64
2023/11/15 03:43:38;;;;;;;8.93;2.88;;;8.60;99.90;;;;;;5033346;28;20202;-64
2023/11/15 03:46:05;;;;;;;4.15;2.42;;;8.50;99.90;;;;;;5034181;28;20205;-65
2023/11/15 03:48:32;;;;;;;4.20;2.90;;;8.50;99.90;;;;;;5034651;28;20201;-65
2023/11/15 03:51:01;;;;;;;3.33;2.90;;;8.50;99.90;;;;;;5033913;28;20208;-64
2023/11/15 03:53:30;;;;;;;7.25;3.25;;;8.50;99.90;;;;;;5033505;28;20245;-63
2023/11/15 03:55:56;;;;;;;4.13;2.40;;;8.50;99.90;;;;;;5033888;28;20198;-63
2023/11/15 03:58:23;;;;;;;3.00;2.33;;;8.50;99.90;;;;;;5033434;28;20232;-64
2023/11/15 04:00:50;;;;;;;2.03;1.83;;;8.40;99.90;;;;;;5033561;28;20293;-64
2023/11/15 04:03:17;;;;;;;4.78;2.78;;;8.40;99.90;;;;;;5033087;28;20226;-63
2023/11/15 04:05:44;;;;;;;2.90;2.35;;;8.40;99.90;;;;;;5033043;28;20198;-64
2023/11/15 04:08:12;;;;;;;2.58;2.20;;;8.30;99.90;;;;;;5033172;28;20293;-64
2023/11/15 04:12:33;;;;;;;4.20;3.80;;;8.30;99.90;;;;;;5085628;27;1568289;-64
2023/11/15 04:15:03;;;;;;;3.60;3.00;;;8.30;99.90;;;;;;5131006;28;20199;-64
2023/11/15 04:17:30;;;;;;;5.55;3.22;;;8.30;99.90;;;;;;5131530;28;20205;-63
2023/11/15 04:19:57;;;;;;;3.58;2.92;;;8.30;99.90;;;;;;5131157;28;20285;-63
2023/11/15 04:22:23;;;;;;;3.90;2.75;;;8.20;99.90;;;;;;5150212;22;20716;-65
2023/11/15 04:24:52;;;;;;;7.78;3.15;;;8.20;99.90;;;;;;5091017;28;20187;-67
2023/11/15 04:27:19;;;;;;;3.22;2.65;;;8.20;99.90;;;;;;5092919;28;20224;-67
2023/11/15 04:29:47;;;;;;;2.67;2.47;;;8.20;99.90;;;;;;5093290;28;20200;-66
2023/11/15 04:32:14;;;;;;;4.07;2.78;;;8.10;99.90;;;;;;5092803;28;20226;-66
2023/11/15 04:34:41;;;;;;;3.40;2.70;;;8.10;99.90;;;;;;5091562;28;20196;-66
2023/11/15 04:37:09;;;;;;;5.10;2.75;;;8.10;99.90;;;;;;5090991;28;20239;-66
2023/11/15 04:39:35;;;;;;;3.53;3.05;;;8.10;99.90;;;;;;5090707;28;20200;-66
2023/11/15 04:42:04;;;;;;;4.00;2.80;;;8.10;99.90;;;;;;5090564;28;20199;-68
2023/11/15 04:44:30;;;;;;;3.25;2.47;;;8.10;99.90;;;;;;5090299;28;20224;-66
2023/11/15 04:46:58;;;;;;;4.07;2.92;;;8.00;99.90;;;;;;5090354;28;20196;-66
2023/11/15 04:49:25;;;;;;;4.28;3.00;;;8.00;99.90;;;;;;5090554;28;20204;-66
2023/11/15 04:51:52;;;;;;;6.00;3.58;;;8.00;99.90;;;;;;5090189;28;20548;-66
2023/11/15 04:54:19;;;;;;;6.82;3.08;;;8.00;99.90;;;;;;5090151;28;20606;-64
2023/11/15 04:56:45;;;;;;;5.82;3.50;;;8.00;99.90;;;;;;5090463;28;20197;-66
2023/11/15 04:59:12;;;;;;;5.18;3.50;;;8.00;99.90;;;;;;5106160;28;20204;-66
2023/11/15 05:01:41;;;;;;;3.70;3.20;;;8.00;99.90;;;;;;5121138;22;20226;-63
2023/11/15 05:04:09;;;;;;;3.90;3.53;;;8.10;99.90;;;;;;5109996;28;20716;-64
2023/11/15 05:06:36;;;;;;;3.70;3.35;;;8.10;99.90;;;;;;5110137;28;20293;-65
2023/11/15 05:09:03;;;;;;;5.38;2.85;;;8.10;99.90;;;;;;5110051;28;20196;-64
2023/11/15 05:11:30;;;;;;;8.35;3.17;;;8.10;99.90;;;;;;5110038;28;20234;-64
2023/11/15 05:13:56;;;;;;;4.18;2.58;;;8.20;99.90;;;;;;5110333;28;20196;-64
2023/11/15 05:16:23;;;;;;;5.45;3.83;;;8.20;99.90;;;;;;5110413;28;20204;-64
2023/11/15 05:18:50;;;;;;;3.50;2.20;;;8.20;99.90;;;;;;5109877;28;20196;-64
2023/11/15 05:21:18;;;;;;;6.80;3.38;;;8.20;99.90;;;;;;5109992;28;20246;-64
2023/11/15 05:23:45;;;;;;;3.70;2.30;;;8.20;99.90;;;;;;5097049;28;20216;-64
2023/11/15 05:26:12;;;;;;;4.20;3.35;;;8.20;99.90;;;;;;5097073;28;20580;-63
2023/11/15 05:28:39;;;;;;;5.50;3.72;;;8.20;99.90;;;;;;5096484;28;20196;-62
2023/11/15 05:31:05;;;;;;;4.50;3.00;;;8.20;99.90;;;;;;5097049;28;20230;-62
2023/11/15 05:33:32;;;;;;;7.05;3.53;;;8.20;99.90;;;;;;5096691;28;20200;-62
2023/11/15 05:35:59;;;;;;;4.95;3.58;;;8.20;99.90;;;;;;5096416;28;20200;-60
2023/11/15 05:38:27;;;;;;;4.55;3.85;;;8.10;99.90;;;;;;5096945;28;20200;-62
2023/11/15 05:40:54;;;;;;;4.75;4.07;;;8.10;99.90;;;;;;5096932;28;20203;-62
2023/11/15 05:43:21;;;;;;;7.93;4.28;;;8.10;99.90;;;;;;5098418;28;20670;-62
2023/11/15 05:45:48;;;;;;;4.28;3.30;;;8.10;99.90;;;;;;5097082;28;20207;-62
2023/11/15 05:48:14;;;;;;;4.50;3.33;;;8.10;99.90;;;;;;5096887;28;20669;-63
2023/11/15 05:50:41;;;;;;;7.35;3.60;;;8.10;99.90;;;;;;5096935;28;20227;-64
2023/11/15 05:53:09;;;;;;;4.32;3.33;;;8.20;99.90;;;;;;5097031;28;20200;-64
2023/11/15 05:55:37;;;;;;;5.70;3.55;;;8.20;99.90;;;;;;5097541;28;20209;-63
2023/11/15 05:58:04;;;;;;;5.18;3.72;;;8.20;99.90;;;;;;5097482;28;20291;-63
2023/11/15 06:00:31;;;;;;;4.55;2.95;;;8.20;99.90;;;;;;5096900;28;20196;-62
2023/11/15 06:02:59;;;;;;;5.00;3.28;;;8.20;99.90;;;;;;5096081;28;20751;-63
2023/11/15 06:05:26;;;;;;;4.65;3.08;;;8.20;99.90;;;;;;5097498;28;20204;-63
2023/11/15 06:07:53;;;;;;;7.28;3.83;;;8.20;99.90;;;;;;5097645;28;20201;-63
2023/11/15 06:10:20;;;;;;;5.05;2.63;;;8.20;99.90;;;;;;5099045;28;20206;-63
2023/11/15 06:12:48;;;;;;;2.38;2.10;;;8.20;99.90;;;;;;5099518;28;20222;-63
2023/11/15 06:15:15;;;;;;;4.20;2.83;;;8.20;99.90;;;;;;5101389;28;20200;-63
2023/11/15 06:17:43;;;;;;;4.97;2.70;;;8.20;99.90;;;;;;5101439;28;20200;-63
2023/11/15 06:20:11;;;;;;;3.22;2.80;;;8.20;99.90;;;;;;5101829;28;20207;-63
2023/11/15 06:22:38;;;;;;;3.75;2.63;;;8.20;99.90;;;;;;5100802;28;20578;-63
2023/11/15 06:25:06;;;;;;;4.85;3.20;;;8.20;99.90;;;;;;5100376;28;20200;-63
2023/11/15 06:27:33;;;;;;;5.78;2.38;;;8.10;99.90;;;;;;5096822;28;20204;-63
2023/11/15 06:30:03;;;;;;;5.82;2.28;;;8.10;99.90;;;;;;5095548;28;20204;-63
2023/11/15 06:32:30;;;;;;;3.75;2.00;;;8.00;99.90;;;;;;5095114;28;20685;-63
2023/11/15 06:34:58;;;;;;;4.35;2.17;;;7.90;99.90;;;;;;5094074;28;20205;-64
2023/11/15 06:37:25;;;;;;;5.85;2.90;;;7.80;99.90;;;;;;5094843;28;20201;-63
2023/11/15 06:39:52;;;;;;;3.45;2.47;;;7.80;99.90;;;;;;5095295;28;20206;-64
2023/11/15 06:42:21;;;;;;;2.20;2.00;;;7.70;99.90;;;;;;5095205;28;20307;-63
2023/11/15 06:44:48;;;;;;;9.20;2.65;;;7.70;99.90;;;;;;5095780;28;20634;-64
2023/11/15 06:47:16;;;;;;;3.25;2.65;;;7.70;99.90;;;;;;5095726;28;20201;-62
2023/11/15 06:49:43;;;;;;;5.85;3.22;;;7.70;99.90;;;;;;5094767;28;20196;-64
2023/11/15 06:52:10;;;;;;;2.72;2.42;;;7.80;99.90;;;;;;5094573;28;20228;-63
2023/11/15 06:54:37;;;;;;;5.60;3.90;;;7.80;99.90;;;;;;5095305;28;20200;-63
2023/11/15 06:57:06;;;;;;;4.47;3.17;;;7.80;99.90;;;;;;5095105;28;20283;-63
2023/11/15 06:59:32;;;;;;;5.72;2.97;;;7.90;99.90;;;;;;5097583;28;20235;-64
2023/11/15 07:02:00;;;;;;;4.25;3.03;;;7.90;99.90;;;;;;5096408;28;20718;-64
2023/11/15 07:04:29;;;;;;;4.40;2.85;;;7.90;99.90;;;;;;5097998;28;20246;-64
2023/11/15 07:06:56;;;;;;;7.35;3.03;;;7.90;99.90;;;;;;5096373;28;20226;-64
2023/11/15 07:09:22;;;;;;;5.75;4.10;;;7.90;99.90;;;;;;5097190;28;20204;-64
2023/11/15 07:11:52;;;;;;;4.70;3.47;;;7.90;99.90;;;;;;5098939;28;20627;-64
2023/11/15 07:14:20;;;;;;;6.78;3.88;;;7.90;99.90;;;;;;5095657;28;20204;-63
2023/11/15 07:16:47;;;;;;;5.90;3.67;;;7.90;99.90;;;;;;5096181;28;20208;-62
2023/11/15 07:19:14;;;;;;;6.15;3.70;;;8.00;99.90;;;;;;5096321;28;20236;-62
2023/11/15 07:21:42;;;;;;;6.40;3.95;;;8.00;99.90;;;;;;5094885;28;20216;-64
2023/11/15 07:24:10;;;;;;;5.28;3.88;;;8.10;99.90;;;;;;5093969;28;20211;-64
2023/11/15 07:26:37;;;;;;;9.70;4.25;;;8.10;99.90;;;;;;5094131;28;20232;-63
2023/11/15 07:29:06;;;;;;;6.85;4.03;;;8.10;99.90;;;;;;5093970;28;20197;-63
2023/11/15 07:31:34;;;;;;;5.10;4.22;;;8.10;99.90;;;;;;5094285;28;20662;-64
2023/11/15 07:34:01;;;;;;;8.55;4.68;;;8.20;99.90;;;;;;5093748;28;20222;-64
2023/11/15 07:36:29;;;;;;;7.88;4.68;;;8.20;99.90;;;;;;5093484;28;20197;-64
2023/11/15 07:38:59;;;;;;;8.02;5.00;;;8.20;99.90;;;;;;5093901;28;20673;-63
2023/11/15 07:41:26;;;;;;;8.10;4.90;;;8.20;99.90;;;;;;5093869;28;20227;-64
2023/11/15 07:43:54;;;;;;;8.63;5.50;;;8.30;99.90;;;;;;5093495;28;20681;-64
2023/11/15 07:46:22;;;;;;;9.88;5.40;;;8.30;99.90;;;;;;5093877;28;20258;-64
2023/11/15 07:48:50;;;;;;;7.20;5.18;;;8.40;99.90;;;;;;5093867;28;20219;-64
2023/11/15 07:51:18;;;;;;;9.73;5.57;;;8.40;99.90;;;;;;5093723;28;20230;-62
2023/11/15 07:53:44;;;;;;;12.50;6.45;;;8.50;99.90;;;;;;5093635;28;20201;-63
2023/11/15 07:56:13;;;;;;;11.77;5.22;;;8.60;99.90;;;;;;5094190;28;20295;-63
2023/11/15 07:58:39;;;;;;;6.50;4.97;;;8.70;99.90;;;;;;5094347;28;20200;-63
2023/11/15 08:01:09;;;;;;;11.27;5.95;;;8.70;99.90;;;;;;5093401;28;20295;-63
2023/11/15 08:03:36;;;;;;;7.80;5.82;;;8.70;99.90;;;;;;5093642;28;20243;-63
2023/11/15 08:06:03;;;;;;;5.70;4.75;;;8.80;99.90;;;;;;5114100;28;20200;-63
2023/11/15 08:08:30;;;;;;;11.10;5.63;;;8.80;99.90;;;;;;5095865;28;20200;-64
2023/11/15 08:10:57;;;;;;;5.07;4.50;;;8.80;99.90;;;;;;5093192;28;20568;-63
2023/11/15 08:13:26;;;;;;;7.17;4.87;;;8.80;99.90;;;;;;5093514;28;20216;-64
2023/11/15 08:15:56;;;;;;;7.23;5.30;;;8.80;99.90;;;;;;5093286;28;20484;-64
2023/11/15 08:18:23;;;;;;;7.60;4.80;;;8.80;99.90;;;;;;5093542;28;20446;-63
2023/11/15 08:20:50;;;;;;;6.68;4.63;;;8.90;99.90;;;;;;5093390;28;20543;-64
2023/11/15 08:23:17;;;;;;;6.80;5.20;;;8.90;99.90;;;;;;5092923;28;20206;-63
2023/11/15 08:25:47;;;;;;;6.50;5.18;;;9.00;99.90;;;;;;5093048;28;20457;-63
2023/11/15 08:28:14;;;;;;;6.03;4.13;;;9.00;99.90;;;;;;5094293;28;20199;-63
2023/11/15 08:30:45;;;;;;;7.82;4.63;;;9.00;99.90;;;;;;5093717;28;20442;-63
2023/11/15 08:33:12;;;;;;;7.97;5.17;;;9.10;99.90;;;;;;5093880;28;20205;-63
2023/11/15 08:35:39;;;;;;;8.50;5.13;;;9.10;99.90;;;;;;5093577;28;20442;-63
2023/11/15 08:38:06;;;;;;;7.95;4.85;;;9.10;99.90;;;;;;5093400;28;20534;-63
2023/11/15 08:40:33;;;;;;;7.63;4.60;;;9.10;99.90;;;;;;5093588;28;20208;-63
2023/11/15 08:43:00;;;;;;;7.18;4.00;;;9.10;99.90;;;;;;5094263;28;20216;-63
2023/11/15 08:45:27;;;;;;;7.70;3.80;;;9.20;99.90;;;;;;5094956;28;20239;-63
2023/11/15 08:47:57;;;;;;;8.57;4.10;;;9.20;99.90;;;;;;5096263;28;20438;-64
2023/11/15 08:50:24;;;;;;;6.35;4.30;;;9.30;99.90;;;;;;5100565;28;20840;-63
2023/11/15 08:52:51;;;;;;;9.98;4.60;;;9.30;99.90;;;;;;5101857;28;20230;-64
2023/11/15 08:55:18;;;;;;;5.33;4.03;;;9.40;99.90;;;;;;5102913;28;20200;-64
2023/11/15 08:57:45;;;;;;;6.77;4.00;;;9.50;99.90;;;;;;5105589;28;20443;-63
2023/11/15 09:00:15;;;;;;;5.50;3.30;;;9.50;99.90;;;;;;5104803;28;20521;-63
2023/11/15 09:02:44;;;;;;;4.33;3.80;;;9.50;99.90;;;;;;5098408;28;20470;-64
2023/11/15 09:05:14;;;;;;;5.87;3.00;;;9.60;99.90;;;;;;5096754;28;20457;-63
2023/11/15 09:07:41;;;;;;;5.93;3.85;;;9.60;99.90;;;;;;5097708;28;20442;-63
2023/11/15 09:10:11;;;;;;;5.40;3.37;;;9.60;99.90;;;;;;5096494;28;20673;-63
2023/11/15 09:12:38;;;;;;;5.22;3.22;;;9.60;99.90;;;;;;5097185;28;20478;-63
2023/11/15 09:15:11;;;;;;;6.40;2.90;;;9.70;99.90;;;;;;5097685;28;20224;-64
2023/11/15 09:17:46;;;;;;;7.63;3.87;;;9.70;99.90;;;;;;5097670;28;20430;-63
2023/11/15 09:20:21;;;;;;;5.22;2.90;;;9.60;99.90;;;;;;5100414;28;20426;-63
2023/11/15 09:22:49;;;;;;;5.13;3.35;;;9.60;99.90;;;;;;5100134;28;20211;-62
2023/11/15 09:25:21;;;;;;;5.30;3.03;;;9.60;99.90;;;;;;5101153;28;20204;-63
2023/11/15 09:27:49;;;;;;;4.88;2.83;;;9.70;99.90;;;;;;5101467;28;20454;-64
2023/11/15 09:30:17;;;;;;;4.87;3.27;;;9.60;99.90;;;;;;5102482;28;20544;-64
2023/11/15 09:32:44;;;;;;;3.43;3.07;;;9.60;99.90;;;;;;5101520;28;20488;-63
2023/11/15 09:35:14;;;;;;;4.93;2.90;;;9.60;99.90;;;;;;5103949;28;20444;-63
2023/11/15 09:37:43;;;;;;;4.30;2.47;;;9.60;99.90;;;;;;5102119;28;20466;-63
2023/11/15 09:40:11;;;;;;;4.18;2.80;;;9.60;99.90;;;;;;5101604;28;20446;-64
2023/11/15 09:42:44;;;;;;;7.03;2.93;;;9.70;99.90;;;;;;5102056;28;20220;-63
2023/11/15 09:45:17;;;;;;;5.43;2.80;;;9.70;99.90;;;;;;5100999;28;20430;-62
2023/11/15 09:47:46;;;;;;;9.73;3.43;;;9.70;99.90;;;;;;5097904;28;20423;-63
2023/11/15 09:50:17;;;;;;;7.68;3.45;;;9.70;99.90;;;;;;5096504;28;20529;-64
2023/11/15 09:52:49;;;;;;;5.27;3.20;;;9.60;99.90;;;;;;5096437;28;20252;-63
2023/11/15 09:55:17;;;;;;;5.00;3.90;;;9.60;99.90;;;;;;5096105;28;20915;-63
2023/11/15 09:57:44;;;;;;;4.45;3.20;;;9.60;99.90;;;;;;5096634;28;20495;-62
2023/11/15 10:00:15;;;;;;;5.68;3.40;;;9.60;99.90;;;;;;5096817;28;20216;-63
2023/11/15 10:02:42;;;;;;;4.03;3.45;;;9.60;99.90;;;;;;5100171;28;20705;-63
2023/11/15 10:05:18;;;;;;;5.17;3.57;;;9.60;99.90;;;;;;5116740;28;20228;-63
2023/11/15 10:07:48;;;;;;;5.55;3.85;;;9.70;99.90;;;;;;5099461;28;20458;-63
2023/11/15 10:10:19;;;;;;;5.93;3.23;;;9.70;99.90;;;;;;5099515;28;20207;-63
2023/11/15 10:12:50;;;;;;;5.97;4.60;;;9.80;99.90;;;;;;5096712;28;20488;-63
2023/11/15 10:15:18;;;;;;;6.40;4.30;;;9.90;99.90;;;;;;5095546;28;20437;-64
2023/11/15 10:17:46;;;;;;;5.13;4.50;;;10.00;99.90;;;;;;5095635;28;20445;-64
2023/11/15 10:20:19;;;;;;;5.03;4.50;;;10.10;99.90;;;;;;5095378;28;20452;-63
2023/11/15 10:22:48;;;;;;;7.63;5.17;;;10.20;99.90;;;;;;5095610;28;20462;-63
2023/11/15 10:25:15;;;;;;;6.83;4.40;;;10.30;99.90;;;;;;5095260;28;20952;-64
2023/11/15 10:27:42;;;;;;;5.73;4.67;;;10.30;99.90;;;;;;5095841;28;20810;-63
2023/11/15 10:30:15;;;;;;;9.10;4.40;;;10.30;99.90;;;;;;5095000;28;20461;-64
2023/11/15 10:32:44;;;;;;;7.80;4.40;;;10.40;99.90;;;;;;5094837;28;20486;-63
2023/11/15 10:35:11;;;;;;;6.87;4.77;;;10.40;99.90;;;;;;5095917;28;20442;-64
2023/11/15 10:37:49;;;;;;;9.90;4.93;;;10.40;99.90;;;;;;5095164;28;20810;-64
2023/11/15 10:40:17;;;;;;;6.60;4.47;;;10.40;99.90;;;;;;5096734;28;20430;-64
2023/11/15 10:42:48;;;;;;;5.73;4.07;;;10.40;99.90;;;;;;5096410;28;20458;-63
2023/11/15 10:45:16;;;;;;;5.50;4.07;;;10.40;99.90;;;;;;5094635;28;20905;-63
2023/11/15 10:47:51;;;;;;;5.27;3.80;;;10.50;99.90;;;;;;5095608;28;20936;-63
2023/11/15 10:50:22;;;;;;;7.80;4.57;;;10.50;99.90;;;;;;5095747;28;20456;-63
2023/11/15 10:52:51;;;;;;;6.50;3.70;;;10.60;99.90;;;;;;5095386;28;20497;-63
2023/11/15 10:55:18;;;;;;;5.23;3.60;;;10.60;99.90;;;;;;5095871;28;20446;-64
2023/11/15 10:57:47;;;;;;;5.20;3.63;;;10.60;99.90;;;;;;5095584;28;20499;-64
2023/11/15 11:00:20;;;;;;;3.90;3.10;;;10.70;99.90;;;;;;5094924;28;20438;-64
2023/11/15 11:02:49;;;;;;;3.63;2.80;;;10.80;99.90;;;;;;5094788;28;20991;-64
2023/11/15 11:05:29;;;;;;;4.50;4.07;;;10.80;99.90;;;;;;5094154;28;20948;-64
2023/11/15 11:08:08;;;;;;;2.70;2.50;;;10.80;99.90;;;;;;5096107;28;20431;-63
2023/11/15 11:10:40;;;;;;;3.87;2.60;;;10.80;99.90;;;;;;5096219;28;20465;-63
2023/11/15 11:13:18;;;;;;;4.40;2.93;;;10.90;99.90;;;;;;5097070;28;20498;-63
2023/11/15 11:15:45;;;;;;;6.30;3.43;;;10.90;99.90;;;;;;5097945;28;20446;-63
2023/11/15 11:18:15;;;;;;;3.73;2.83;;;10.90;99.90;;;;;;5101478;28;20791;-63
2023/11/15 11:20:43;;;;;;;3.70;3.07;;;11.00;99.90;;;;;;5105644;28;20442;-64
2023/11/15 11:23:17;;;;;;;3.87;3.00;;;11.00;99.90;;;;;;5105553;28;20506;-64
2023/11/15 11:25:46;;;;;;;3.20;2.90;;;11.10;99.90;;;;;;5104390;28;20434;-60
2023/11/15 11:28:13;;;;;;;5.50;3.00;;;11.20;99.90;;;;;;5106103;28;20510;-64
2023/11/15 11:30:40;;;;;;;4.30;3.90;;;11.20;99.90;;;;;;5102353;28;20450;-64
2023/11/15 11:33:15;;;;;;;4.67;3.67;;;11.20;99.90;;;;;;5094783;28;20573;-62
2023/11/15 11:35:43;;;;;;;4.77;3.80;;;11.30;99.90;;;;;;5094411;28;20821;-64
2023/11/15 11:38:31;;;;;;;5.27;3.60;;;11.30;99.90;;;;;;5093988;28;20438;-64
2023/11/15 11:41:01;;;;;;;4.70;3.43;;;11.30;99.90;;;;;;5094672;28;21009;-64
2023/11/15 11:43:30;;;;;;;4.70;3.80;;;11.20;99.90;;;;;;5094234;28;20515;-63
2023/11/15 11:45:58;;;;;;;5.67;3.80;;;11.20;99.90;;;;;;5094364;28;20450;-63
2023/11/15 11:48:26;;;;;;;6.07;3.63;;;11.10;99.90;;;;;;5094781;28;20446;-65
2023/11/15 11:50:54;;;;;;;5.20;3.70;;;11.10;99.90;;;;;;5094181;28;20442;-64
2023/11/15 11:53:23;;;;;;;6.40;3.63;;;11.10;99.90;;;;;;5093721;28;20542;-63
2023/11/15 11:55:54;;;;;;;3.83;3.30;;;11.00;99.90;;;;;;5093975;28;20452;-64
2023/11/15 11:58:21;;;;;;;3.63;3.00;;;11.00;99.90;;;;;;5093993;28;20455;-65
2023/11/15 12:00:49;;;;;;;3.73;2.50;;;11.00;99.90;;;;;;5093992;28;20529;-64
2023/11/15 12:03:16;;;;;;;4.83;2.80;;;11.00;99.90;;;;;;5094288;28;20419;-64
2023/11/15 12:05:44;;;;;;;3.80;2.80;;;11.00;99.90;;;;;;5111577;28;20457;-63
2023/11/15 12:08:11;;;;;;;4.73;2.43;;;11.00;99.90;;;;;;5098931;28;20526;-63
2023/11/15 12:10:44;;;;;;;4.90;3.00;;;11.00;99.90;;;;;;5094281;28;20438;-63
2023/11/15 12:13:11;;;;;;;3.60;2.47;;;11.10;99.90;;;;;;5094145;28;20465;-64
2023/11/15 12:15:38;;;;;;;6.90;2.63;;;11.10;99.90;;;;;;5094030;28;20486;-63
2023/11/15 12:18:06;;;;;;;5.10;2.47;;;11.10;99.90;;;;;;5095264;28;20470;-68
2023/11/15 12:20:36;;;;;;;3.30;1.77;;;11.10;99.90;;;;;;5094212;28;20534;-63
2023/11/15 12:23:05;;;;;;;3.00;2.47;;;11.00;99.90;;;;;;5093669;28;20968;-63
2023/11/15 12:25:33;;;;;;;2.60;2.03;;;10.90;99.90;;;;;;5095088;28;20460;-64
2023/11/15 12:28:05;;;;;;;5.83;2.40;;;10.80;99.90;;;;;;5095094;28;20461;-64
2023/11/15 12:30:33;;;;;;;3.53;2.20;;;10.60;99.90;;;;;;5092911;28;20444;-64
2023/11/15 12:33:02;;;;;;;5.50;2.67;;;10.40;99.90;;;;;;5094454;28;20959;-65
2023/11/15 12:35:31;;;;;;;4.80;2.90;;;10.30;99.90;;;;;;5097252;28;20447;-64
2023/11/15 12:38:04;;;;;;;9.13;3.60;;;10.10;99.90;;;;;;5097275;28;20467;-63
2023/11/15 12:40:31;;;;;;;12.10;3.77;;;10.10;99.90;;;;;;5097444;28;20547;-65
2023/11/15 12:43:14;;;;;;;7.30;4.27;;;10.10;99.90;;;;;;5097052;28;20469;-64
2023/11/15 12:45:43;;;;;;;4.00;3.33;;;10.10;99.90;;;;;;5097508;28;20445;-64
2023/11/15 12:48:10;;;;;;;8.00;4.57;;;10.20;99.90;;;;;;5097267;28;20864;-64
2023/11/15 12:50:39;;;;;;;9.40;3.50;;;10.20;99.90;;;;;;5097340;28;20438;-63
2023/11/15 12:53:07;;;;;;;5.20;3.70;;;10.30;99.90;;;;;;5096933;28;20492;-63
2023/11/15 12:55:46;;;;;;;5.10;3.33;;;10.30;99.90;;;;;;5096922;28;20446;-64
2023/11/15 12:58:14;;;;;;;7.67;3.10;;;10.40;99.90;;;;;;5096579;28;20892;-64
2023/11/15 13:00:57;;;;;;;5.97;2.97;;;10.50;99.90;;;;;;5096558;28;20500;-64
2023/11/15 13:03:26;;;;;;;8.10;4.17;;;10.40;99.90;;;;;;5097356;28;20919;-63